Time,TemperatureF,DewpointF,PressureIn,WindDirection,WindDirectionDegrees,WindSpeedMPH,WindSpeedGustMPH,Humidity,HourlyPrecipIn,Conditions,Clouds,dailyrainin,SolarRadiationWatts/m^2,SoftwareType,DateUTC
2013-09-25 00:02:00,48.0,45.0,-100.00,WNW,298,7.0,11.0,89,0.00,,,0.02,0.000000,,2013-09-25 06:02:00,
2013-09-25 00:13:00,48.0,45.0,-100.00,WNW,298,7.0,11.0,89,0.00,,,0.02,0.000000,,2013-09-25 06:13:00,
2013-09-25 00:23:00,48.0,45.0,-100.00,WNW,298,7.0,11.0,89,0.00,,,0.02,0.000000,,2013-09-25 06:23:00,
2013-09-25 00:52:00,47.0,45.0,-100.00,SSE,151,2.0,11.0,91,0.00,,,0.02,0.000000,,2013-09-25 06:52:00,
2013-09-25 01:01:00,47.0,45.0,-100.00,SSE,151,2.0,11.0,91,0.00,,,0.02,0.000000,,2013-09-25 07:01:00,
2013-09-25 01:11:00,47.0,45.0,-100.00,SSE,151,2.0,11.0,91,0.00,,,0.02,0.000000,,2013-09-25 07:11:00,
2013-09-25 01:21:00,47.0,45.0,-100.00,SSE,151,2.0,11.0,91,0.00,,,0.02,0.000000,,2013-09-25 07:21:00,
2013-09-25 01:53:00,46.0,45.0,-100.00,SSW,204,5.0,6.0,95,0.00,,,0.02,0.000000,,2013-09-25 07:53:00,
2013-09-25 02:02:00,46.0,45.0,-100.00,SSW,204,5.0,6.0,95,0.00,,,0.02,0.000000,,2013-09-25 08:02:00,
2013-09-25 02:11:00,46.0,45.0,-100.00,SSW,204,5.0,6.0,95,0.00,,,0.02,0.000000,,2013-09-25 08:11:00,
2013-09-25 02:21:00,46.0,45.0,-100.00,SSW,204,5.0,6.0,95,0.00,,,0.02,0.000000,,2013-09-25 08:21:00,
2013-09-25 02:53:00,44.0,43.0,-100.00,WNW,285,6.0,7.0,97,0.00,,,0.02,0.000000,,2013-09-25 08:53:00,
2013-09-25 03:02:00,44.0,43.0,-100.00,WNW,285,6.0,7.0,97,0.00,,,0.02,0.000000,,2013-09-25 09:02:00,
2013-09-25 03:11:00,44.0,43.0,-100.00,WNW,285,6.0,7.0,97,0.00,,,0.02,0.000000,,2013-09-25 09:11:00,
2013-09-25 03:21:00,44.0,43.0,-100.00,WNW,285,6.0,7.0,97,0.00,,,0.02,0.000000,,2013-09-25 09:21:00,
2013-09-25 03:53:00,45.0,43.0,-100.00,West,276,6.0,8.0,93,0.00,,,-99.99,0.000000,,2013-09-25 09:53:00,
2013-09-25 04:03:00,45.0,43.0,-100.00,West,276,6.0,8.0,93,0.00,,,-99.99,0.000000,,2013-09-25 10:03:00,
2013-09-25 04:12:00,45.0,43.0,-100.00,West,276,6.0,8.0,93,0.00,,,-99.99,0.000000,,2013-09-25 10:12:00,
2013-09-25 04:22:00,45.0,43.0,-100.00,West,276,6.0,8.0,93,0.00,,,-99.99,0.000000,,2013-09-25 10:22:00,
2013-09-25 04:53:00,44.0,41.0,-100.00,WNW,287,7.0,11.0,89,0.00,,,0.02,0.000000,,2013-09-25 10:53:00,
2013-09-25 05:02:00,44.0,41.0,-100.00,WNW,287,7.0,11.0,89,0.00,,,0.02,0.000000,,2013-09-25 11:02:00,
2013-09-25 05:12:00,44.0,41.0,-100.00,WNW,287,7.0,11.0,89,0.00,,,0.02,0.000000,,2013-09-25 11:12:00,
2013-09-25 05:21:00,44.0,41.0,-100.00,WNW,287,7.0,11.0,89,0.00,,,0.02,0.000000,,2013-09-25 11:21:00,
2013-09-25 05:52:00,44.0,41.0,-100.00,West,274,8.0,12.0,90,0.00,,,0.02,0.000000,,2013-09-25 11:52:00,
2013-09-25 06:02:00,44.0,41.0,-100.00,West,274,8.0,12.0,90,0.00,,,0.02,0.000000,,2013-09-25 12:02:00,
2013-09-25 06:12:00,44.0,41.0,-100.00,West,274,8.0,12.0,90,0.00,,,0.02,0.000000,,2013-09-25 12:12:00,
2013-09-25 06:21:00,44.0,41.0,-100.00,West,274,8.0,12.0,90,0.00,,,0.02,0.000000,,2013-09-25 12:21:00,
2013-09-25 06:52:00,43.0,41.0,-100.00,West,269,10.0,12.0,92,0.00,,,0.02,0.000000,,2013-09-25 12:52:00,
2013-09-25 07:01:00,43.0,41.0,-100.00,West,269,10.0,12.0,92,0.00,,,0.02,0.000000,,2013-09-25 13:01:00,
2013-09-25 07:11:00,43.0,41.0,-100.00,West,269,10.0,12.0,92,0.00,,,0.02,0.000000,,2013-09-25 13:11:00,
2013-09-25 07:21:00,43.0,41.0,-100.00,West,269,10.0,12.0,92,0.00,,,0.02,0.000000,,2013-09-25 13:21:00,
2013-09-25 07:52:00,42.0,40.0,-100.00,West,267,10.0,14.0,91,0.00,,,0.02,0.000000,,2013-09-25 13:52:00,
2013-09-25 08:02:00,42.0,40.0,-100.00,West,267,10.0,14.0,91,0.00,,,0.02,0.000000,,2013-09-25 14:02:00,
2013-09-25 08:11:00,42.0,40.0,-100.00,West,267,10.0,14.0,91,0.00,,,0.02,0.000000,,2013-09-25 14:11:00,
2013-09-25 08:22:00,42.0,40.0,-100.00,West,267,10.0,14.0,91,0.00,,,0.02,0.000000,,2013-09-25 14:22:00,
2013-09-25 08:52:00,42.0,40.0,-100.00,West,262,12.0,16.0,93,0.00,,,0.02,7.000000,,2013-09-25 14:52:00,
2013-09-25 09:02:00,42.0,40.0,-100.00,West,262,12.0,16.0,93,0.00,,,0.02,7.000000,,2013-09-25 15:02:00,
2013-09-25 09:11:00,42.0,40.0,-100.00,West,262,12.0,16.0,93,0.00,,,0.02,7.000000,,2013-09-25 15:11:00,
2013-09-25 09:22:00,42.0,40.0,-100.00,West,262,12.0,16.0,93,0.00,,,0.02,7.000000,,2013-09-25 15:22:00,
2013-09-25 09:53:00,43.0,41.0,-100.00,West,264,11.0,18.0,92,0.00,,,0.02,49.000000,,2013-09-25 15:53:00,
2013-09-25 10:03:00,43.0,41.0,-100.00,West,264,11.0,18.0,92,0.00,,,0.02,49.000000,,2013-09-25 16:03:00,
2013-09-25 10:13:00,43.0,41.0,-100.00,West,264,11.0,18.0,92,0.00,,,0.02,49.000000,,2013-09-25 16:13:00,
2013-09-25 10:23:00,43.0,41.0,-100.00,West,264,11.0,18.0,92,0.00,,,0.02,49.000000,,2013-09-25 16:23:00,
2013-09-25 10:53:00,45.0,41.0,-100.00,West,271,16.0,22.0,85,0.00,,,0.02,122.000000,,2013-09-25 16:53:00,
2013-09-25 11:03:00,45.0,41.0,-100.00,West,271,16.0,22.0,85,0.00,,,0.02,122.000000,,2013-09-25 17:03:00,
2013-09-25 11:12:00,45.0,41.0,-100.00,West,271,16.0,22.0,85,0.00,,,0.02,122.000000,,2013-09-25 17:12:00,
2013-09-25 11:23:00,45.0,41.0,-100.00,West,271,16.0,22.0,85,0.00,,,0.02,122.000000,,2013-09-25 17:23:00,
2013-09-25 11:52:00,45.0,41.0,-100.00,West,261,14.0,20.0,87,0.01,,,0.03,176.000000,,2013-09-25 17:52:00,
2013-09-25 12:02:00,45.0,41.0,-100.00,West,261,14.0,20.0,87,0.01,,,0.03,176.000000,,2013-09-25 18:02:00,
2013-09-25 12:13:00,45.0,41.0,-100.00,West,261,14.0,20.0,87,0.01,,,0.03,176.000000,,2013-09-25 18:13:00,
2013-09-25 12:21:00,45.0,41.0,-100.00,West,261,14.0,20.0,87,0.01,,,0.03,176.000000,,2013-09-25 18:21:00,
2013-09-25 12:52:00,46.0,41.0,-100.00,West,266,15.0,24.0,83,0.00,,,0.03,224.000000,,2013-09-25 18:52:00,
2013-09-25 13:02:00,46.0,41.0,-100.00,West,266,15.0,24.0,83,0.00,,,0.03,224.000000,,2013-09-25 19:02:00,
2013-09-25 13:11:00,46.0,41.0,-100.00,West,266,15.0,24.0,83,0.00,,,0.03,224.000000,,2013-09-25 19:11:00,
2013-09-25 13:22:00,46.0,41.0,-100.00,West,266,15.0,24.0,83,0.00,,,0.03,224.000000,,2013-09-25 19:22:00,
2013-09-25 13:52:00,48.0,41.0,-100.00,West,271,14.0,20.0,76,0.00,,,0.03,307.000000,,2013-09-25 19:52:00,
2013-09-25 14:03:00,48.0,41.0,-100.00,West,271,14.0,20.0,76,0.00,,,0.03,307.000000,,2013-09-25 20:03:00,
2013-09-25 14:12:00,48.0,41.0,-100.00,West,271,14.0,20.0,76,0.00,,,0.03,307.000000,,2013-09-25 20:12:00,
2013-09-25 14:22:00,48.0,41.0,-100.00,West,271,14.0,20.0,76,0.00,,,0.03,307.000000,,2013-09-25 20:22:00,
2013-09-25 14:52:00,48.0,41.0,-100.00,WSW,253,12.0,21.0,78,0.00,,,0.03,308.000000,,2013-09-25 20:52:00,
2013-09-25 15:01:00,48.0,41.0,-100.00,WSW,253,12.0,21.0,78,0.00,,,0.03,308.000000,,2013-09-25 21:01:00,
2013-09-25 15:12:00,48.0,41.0,-100.00,WSW,253,12.0,21.0,78,0.00,,,0.03,308.000000,,2013-09-25 21:12:00,
2013-09-25 15:22:00,48.0,41.0,-100.00,WSW,253,12.0,21.0,78,0.00,,,0.03,308.000000,,2013-09-25 21:22:00,
2013-09-25 15:55:00,49.0,40.0,-100.00,West,276,14.0,22.0,72,0.00,,,0.02,243.000000,,2013-09-25 21:55:00,
2013-09-25 16:04:00,49.0,40.0,-100.00,West,276,14.0,22.0,72,0.00,,,0.02,243.000000,,2013-09-25 22:04:00,
2013-09-25 16:14:00,49.0,40.0,-100.00,West,276,14.0,22.0,72,0.00,,,0.02,243.000000,,2013-09-25 22:14:00,
2013-09-25 16:23:00,49.0,40.0,-100.00,West,276,14.0,22.0,72,0.00,,,0.02,243.000000,,2013-09-25 22:23:00,
2013-09-25 16:53:00,46.0,42.0,-100.00,WSW,256,15.0,25.0,87,0.00,,,0.02,102.000000,,2013-09-25 22:53:00,
2013-09-25 17:02:00,46.0,42.0,-100.00,WSW,256,15.0,25.0,87,0.00,,,0.02,102.000000,,2013-09-25 23:02:00,
2013-09-25 17:12:00,46.0,42.0,-100.00,WSW,256,15.0,25.0,87,0.00,,,0.02,102.000000,,2013-09-25 23:12:00,
2013-09-25 17:22:00,46.0,42.0,-100.00,WSW,256,15.0,25.0,87,0.00,,,0.02,102.000000,,2013-09-25 23:22:00,
2013-09-25 17:53:00,46.0,42.0,-100.00,WSW,256,15.0,20.0,87,0.00,,,0.01,141.000000,,2013-09-25 23:53:00,
2013-09-25 18:02:00,46.0,42.0,-100.00,WSW,256,15.0,20.0,87,0.00,,,0.01,141.000000,,2013-09-26 00:02:00,
2013-09-25 18:12:00,46.0,42.0,-100.00,WSW,256,15.0,20.0,87,0.00,,,0.01,141.000000,,2013-09-26 00:12:00,
2013-09-25 18:22:00,46.0,42.0,-100.00,WSW,256,15.0,20.0,87,0.00,,,0.01,141.000000,,2013-09-26 00:22:00,
2013-09-25 18:52:00,47.0,41.0,-100.00,WSW,242,12.0,20.0,78,0.01,,,0.02,145.000000,,2013-09-26 00:52:00,
2013-09-25 19:02:00,47.0,41.0,-100.00,WSW,242,12.0,20.0,78,0.01,,,0.02,145.000000,,2013-09-26 01:02:00,
2013-09-25 19:12:00,47.0,41.0,-100.00,WSW,242,12.0,20.0,78,0.01,,,0.02,145.000000,,2013-09-26 01:12:00,
2013-09-25 19:22:00,47.0,41.0,-100.00,WSW,242,12.0,20.0,78,0.01,,,0.02,145.000000,,2013-09-26 01:22:00,
2013-09-25 19:52:00,45.0,41.0,-100.00,WSW,255,9.0,18.0,85,0.00,,,0.02,68.000000,,2013-09-26 01:52:00,
2013-09-25 20:02:00,45.0,41.0,-100.00,WSW,255,9.0,18.0,85,0.00,,,0.02,68.000000,,2013-09-26 02:02:00,
2013-09-25 20:12:00,45.0,41.0,-100.00,WSW,255,9.0,18.0,85,0.00,,,0.02,68.000000,,2013-09-26 02:12:00,
2013-09-25 20:21:00,45.0,41.0,-100.00,WSW,255,9.0,18.0,85,0.00,,,0.02,68.000000,,2013-09-26 02:21:00,
2013-09-25 21:12:00,44.0,42.0,-100.00,West,259,4.0,13.0,94,0.02,,,0.04,2.000000,,2013-09-26 03:12:00,
2013-09-25 21:22:00,44.0,42.0,-100.00,West,259,4.0,13.0,94,0.02,,,0.04,2.000000,,2013-09-26 03:22:00,
2013-09-25 21:55:00,44.0,41.0,-100.00,WSW,244,11.0,16.0,90,0.00,,,0.04,0.000000,,2013-09-26 03:55:00,
2013-09-25 22:04:00,44.0,41.0,-100.00,WSW,244,11.0,16.0,90,0.00,,,0.04,0.000000,,2013-09-26 04:04:00,
2013-09-25 22:13:00,44.0,41.0,-100.00,WSW,244,11.0,16.0,90,0.00,,,0.04,0.000000,,2013-09-26 04:13:00,
2013-09-25 22:23:00,44.0,41.0,-100.00,WSW,244,11.0,16.0,90,0.00,,,0.04,0.000000,,2013-09-26 04:23:00,
2013-09-25 22:54:00,44.0,41.0,-100.00,WSW,258,11.0,16.0,89,0.01,,,0.05,0.000000,,2013-09-26 04:54:00,
2013-09-25 23:03:00,44.0,41.0,-100.00,WSW,258,11.0,16.0,89,0.01,,,0.05,0.000000,,2013-09-26 05:03:00,
2013-09-25 23:12:00,44.0,41.0,-100.00,WSW,258,11.0,16.0,89,0.01,,,0.05,0.000000,,2013-09-26 05:12:00,
2013-09-25 23:23:00,44.0,41.0,-100.00,WSW,258,11.0,16.0,89,0.01,,,0.05,0.000000,,2013-09-26 05:23:00,
2013-09-25 23:52:00,43.0,40.0,-100.00,West,266,14.0,19.0,88,0.00,,,0.05,0.000000,,2013-09-26 05:52:00,